createdAt,value
2022-12-14T00:01:13.284Z,92.10
2022-12-14T00:03:40.405Z,92.10
2022-12-14T00:06:10.437Z,92.10
2022-12-14T00:08:41.652Z,92.10
2022-12-14T00:11:09.598Z,92.10
2022-12-14T00:13:37.040Z,92.10
2022-12-14T00:16:08.092Z,92.10
2022-12-14T00:18:36.288Z,92.20
2022-12-14T00:21:04.579Z,92.20
2022-12-14T00:23:37.128Z,92.20
2022-12-14T00:26:13.840Z,92.10
2022-12-14T00:28:41.267Z,92.20
2022-12-14T00:31:08.718Z,92.20
2022-12-14T00:33:35.596Z,92.20
2022-12-14T00:36:02.794Z,92.20
2022-12-14T00:38:29.870Z,92.20
2022-12-14T00:40:56.769Z,92.20
2022-12-14T00:43:24.088Z,92.20
2022-12-14T00:45:51.438Z,92.20
2022-12-14T00:48:19.778Z,92.20
2022-12-14T00:50:48.813Z,92.20
2022-12-14T00:53:22.047Z,92.20
2022-12-14T00:55:57.655Z,92.20
2022-12-14T00:58:25.223Z,92.10
2022-12-14T01:01:01.935Z,92.20
2022-12-14T01:03:29.227Z,92.20
2022-12-14T01:05:56.415Z,92.20
2022-12-14T01:08:23.444Z,92.20
2022-12-14T01:10:50.632Z,92.10
2022-12-14T01:13:17.568Z,92.10
2022-12-14T01:15:44.713Z,92.10
2022-12-14T01:18:11.509Z,92.10
2022-12-14T01:20:38.227Z,92.10
2022-12-14T01:23:05.047Z,92.10
2022-12-14T01:25:31.965Z,92.10
2022-12-14T01:27:58.752Z,92.10
2022-12-14T01:30:25.859Z,92.20
2022-12-14T01:32:52.785Z,92.20
2022-12-14T01:35:19.481Z,92.20
2022-12-14T01:37:48.859Z,92.10
2022-12-14T01:40:16.923Z,92.20
2022-12-14T01:42:43.811Z,92.10
2022-12-14T01:45:22.122Z,92.20
2022-12-14T01:48:09.708Z,92.20
2022-12-14T01:50:38.907Z,92.20
2022-12-14T01:53:10.050Z,92.10
2022-12-14T01:55:39.641Z,92.20
2022-12-14T01:58:09.571Z,92.20
2022-12-14T02:00:36.655Z,92.10
2022-12-14T02:03:06.512Z,92.20
2022-12-14T02:05:35.587Z,92.20
2022-12-14T02:08:03.979Z,92.20
2022-12-14T02:10:31.794Z,92.10
2022-12-14T02:13:03.161Z,92.10
2022-12-14T02:15:31.332Z,92.20
2022-12-14T02:17:58.434Z,92.20
2022-12-14T02:20:28.718Z,92.20
2022-12-14T02:23:22.727Z,92.10
2022-12-14T02:25:57.473Z,92.20
2022-12-14T02:28:27.118Z,92.20
2022-12-14T02:31:14.184Z,92.20
2022-12-14T02:33:41.080Z,92.10
2022-12-14T02:36:07.773Z,92.10
2022-12-14T02:38:37.593Z,92.20
2022-12-14T02:41:23.088Z,92.10
2022-12-14T02:43:49.906Z,92.10
2022-12-14T02:46:25.903Z,92.10
2022-12-14T02:48:58.715Z,92.20
2022-12-14T02:51:39.438Z,92.20
2022-12-14T02:54:09.913Z,92.20
2022-12-14T02:56:41.070Z,92.10
2022-12-14T02:59:08.831Z,92.20
2022-12-14T03:01:36.758Z,92.20
2022-12-14T03:04:04.111Z,92.20
2022-12-14T03:06:30.829Z,92.10
2022-12-14T03:09:00.390Z,92.20
2022-12-14T03:11:34.688Z,92.20
2022-12-14T03:14:05.490Z,92.20
2022-12-14T03:16:36.236Z,92.20
2022-12-14T03:19:09.152Z,92.20
2022-12-14T03:21:37.447Z,92.20
2022-12-14T03:24:09.952Z,92.20
2022-12-14T03:26:45.648Z,92.10
2022-12-14T03:29:27.523Z,92.10
2022-12-14T03:31:56.310Z,92.10
2022-12-14T03:34:29.004Z,92.10
2022-12-14T03:37:16.147Z,92.10
2022-12-14T03:39:43.619Z,92.10
2022-12-14T03:42:10.353Z,92.20
2022-12-14T03:44:49.435Z,92.10
2022-12-14T03:47:16.690Z,92.10
2022-12-14T03:49:58.673Z,92.10
2022-12-14T03:52:40.722Z,92.10
2022-12-14T03:55:19.455Z,92.10
2022-12-14T03:57:51.978Z,92.10
2022-12-14T04:00:22.856Z,92.20
2022-12-14T04:02:58.673Z,92.20
2022-12-14T04:05:31.023Z,92.20
2022-12-14T04:08:03.588Z,92.10
2022-12-14T04:10:54.097Z,92.10
2022-12-14T04:13:42.995Z,92.20
2022-12-14T04:16:37.489Z,92.10
2022-12-14T04:19:06.559Z,92.10
2022-12-14T04:21:39.252Z,92.10
2022-12-14T04:24:31.104Z,92.10
2022-12-14T04:27:18.868Z,92.20
2022-12-14T04:30:00.167Z,92.10
2022-12-14T04:32:26.896Z,92.10
2022-12-14T04:35:04.236Z,92.20
2022-12-14T04:37:32.217Z,92.20
2022-12-14T04:40:08.558Z,92.20
2022-12-14T04:42:40.139Z,92.10
2022-12-14T04:45:10.005Z,92.40
2022-12-14T04:47:42.258Z,92.20
2022-12-14T04:50:13.216Z,92.20
2022-12-14T04:52:43.630Z,92.20
2022-12-14T04:55:23.288Z,92.10
2022-12-14T04:57:53.530Z,92.10
2022-12-14T05:00:20.391Z,92.10
2022-12-14T05:03:05.909Z,92.20
2022-12-14T05:05:32.720Z,92.10
2022-12-14T05:08:06.446Z,92.20
2022-12-14T05:10:44.453Z,92.10
2022-12-14T05:13:20.296Z,92.10
2022-12-14T05:15:49.314Z,92.10
2022-12-14T05:18:16.407Z,92.10
2022-12-14T05:20:43.162Z,92.10
2022-12-14T05:23:09.926Z,92.20
2022-12-14T05:25:36.656Z,92.20
2022-12-14T05:28:03.588Z,92.20
2022-12-14T05:30:30.390Z,92.10
2022-12-14T05:32:57.535Z,92.10
2022-12-14T05:35:24.757Z,92.20
2022-12-14T05:37:51.590Z,92.20
2022-12-14T05:40:18.393Z,92.20
2022-12-14T05:42:47.688Z,92.10
2022-12-14T05:45:17.745Z,92.20
2022-12-14T05:47:45.091Z,92.10
2022-12-14T05:50:12.278Z,92.20
2022-12-14T05:52:39.028Z,92.20
2022-12-14T05:55:06.877Z,92.20
2022-12-14T05:57:33.689Z,92.20
2022-12-14T06:00:00.455Z,92.40
2022-12-14T06:02:27.432Z,92.20
2022-12-14T06:04:54.293Z,92.20
2022-12-14T06:07:26.096Z,92.20
2022-12-14T06:09:54.787Z,92.20
2022-12-14T06:12:21.538Z,92.20
2022-12-14T06:14:48.284Z,92.20
2022-12-14T06:17:15.060Z,92.20
2022-12-14T06:19:42.548Z,92.20
2022-12-14T06:22:16.601Z,92.20
2022-12-14T06:24:43.366Z,92.20
2022-12-14T06:27:10.118Z,92.20
2022-12-14T06:29:37.015Z,92.20
2022-12-14T06:32:03.827Z,92.20
2022-12-14T06:34:35.259Z,92.20
2022-12-14T06:37:06.361Z,92.10
2022-12-14T06:39:33.245Z,92.20
2022-12-14T06:42:00.017Z,92.20
2022-12-14T06:44:26.949Z,92.20
2022-12-14T06:46:53.759Z,92.20
2022-12-14T06:49:20.532Z,92.20
2022-12-14T06:51:47.639Z,92.20
2022-12-14T06:54:15.539Z,92.20
2022-12-14T06:56:43.166Z,92.20
2022-12-14T06:59:10.455Z,92.20
2022-12-14T07:01:37.956Z,92.20
2022-12-14T07:04:04.968Z,92.20
2022-12-14T07:06:32.973Z,92.20
2022-12-14T07:09:00.070Z,92.20
2022-12-14T07:11:27.344Z,92.20
2022-12-14T07:13:54.407Z,92.20
2022-12-14T07:16:22.461Z,92.20
2022-12-14T07:18:49.278Z,92.20
2022-12-14T07:21:17.011Z,92.20
2022-12-14T07:23:44.752Z,92.20
2022-12-14T07:26:15.994Z,92.20
2022-12-14T07:28:44.925Z,92.20
2022-12-14T07:31:18.809Z,92.20
2022-12-14T07:33:46.040Z,92.20
2022-12-14T07:36:14.104Z,92.20
2022-12-14T07:38:41.118Z,92.20
2022-12-14T07:41:10.164Z,92.20
2022-12-14T07:43:37.496Z,92.20
2022-12-14T07:46:05.461Z,92.20
2022-12-14T07:48:32.421Z,92.20
2022-12-14T07:51:05.975Z,92.20
2022-12-14T07:53:32.850Z,92.20
2022-12-14T07:56:02.917Z,92.20
2022-12-14T07:58:29.907Z,92.20
2022-12-14T08:00:56.875Z,92.20
2022-12-14T08:03:23.617Z,92.20
2022-12-14T08:05:50.389Z,92.30
2022-12-14T08:08:17.618Z,92.20
2022-12-14T08:10:48.280Z,92.20
2022-12-14T08:13:15.032Z,92.20
2022-12-14T08:15:42.232Z,92.20
2022-12-14T08:18:09.026Z,92.20
2022-12-14T08:20:35.773Z,92.20
2022-12-14T08:23:02.819Z,92.20
2022-12-14T08:25:29.582Z,92.20
2022-12-14T08:27:56.308Z,92.20
2022-12-14T08:30:23.056Z,92.20
2022-12-14T08:32:49.851Z,92.20
2022-12-14T08:35:16.831Z,92.20
2022-12-14T08:37:47.474Z,92.20
2022-12-14T08:40:14.611Z,92.20
2022-12-14T08:42:41.386Z,92.20
2022-12-14T08:45:08.440Z,92.20
2022-12-14T08:47:35.149Z,92.20
2022-12-14T08:50:01.902Z,92.20
2022-12-14T08:52:28.995Z,92.20
2022-12-14T08:54:55.756Z,92.20
2022-12-14T08:57:22.511Z,92.20
2022-12-14T09:00:01.465Z,92.20
2022-12-14T09:02:29.044Z,92.20
2022-12-14T09:04:56.036Z,92.20
2022-12-14T09:07:22.813Z,92.20
2022-12-14T09:09:49.549Z,92.20
2022-12-14T09:12:16.337Z,92.20
2022-12-14T09:14:46.638Z,92.20
2022-12-14T09:17:16.568Z,92.20
2022-12-14T09:19:43.775Z,92.20
2022-12-14T09:22:11.015Z,92.20
2022-12-14T09:24:37.786Z,92.20
2022-12-14T09:27:04.662Z,92.20
2022-12-14T09:29:31.439Z,92.20
2022-12-14T09:31:58.332Z,92.20
2022-12-14T09:34:25.502Z,92.20
2022-12-14T09:36:53.119Z,92.20
2022-12-14T09:39:20.017Z,92.50
2022-12-14T09:41:57.745Z,92.30
2022-12-14T09:44:43.655Z,92.30
2022-12-14T09:47:10.852Z,92.30
2022-12-14T09:49:46.751Z,92.30
2022-12-14T09:52:21.352Z,92.30
2022-12-14T09:54:50.026Z,92.30
2022-12-14T09:57:32.918Z,92.30
2022-12-14T09:59:59.733Z,92.30
2022-12-14T10:02:45.543Z,92.40
2022-12-14T10:05:30.689Z,92.40
2022-12-14T10:07:57.440Z,92.40
2022-12-14T10:10:26.725Z,92.40
2022-12-14T10:13:05.419Z,92.40
2022-12-14T10:15:38.128Z,92.40
2022-12-14T10:18:57.752Z,92.70
2022-12-14T10:21:13.682Z,92.40
2022-12-14T10:23:53.206Z,92.40
2022-12-14T10:26:20.770Z,92.40
2022-12-14T10:28:48.391Z,92.40
2022-12-14T10:31:21.049Z,92.40
2022-12-14T10:33:47.971Z,92.50
2022-12-14T10:36:26.445Z,92.50
2022-12-14T10:38:56.324Z,92.50
2022-12-14T10:41:25.881Z,92.40
2022-12-14T10:43:58.617Z,92.50
2022-12-14T10:46:40.345Z,92.50
2022-12-14T10:49:13.032Z,92.50
2022-12-14T10:51:51.170Z,92.40
2022-12-14T10:54:17.879Z,92.40
2022-12-14T10:56:49.876Z,92.40
2022-12-14T10:59:23.989Z,92.40
2022-12-14T11:02:06.270Z,92.40
2022-12-14T11:04:38.837Z,92.40
2022-12-14T11:07:09.856Z,92.40
2022-12-14T11:09:37.402Z,92.50
2022-12-14T11:12:13.305Z,92.50
2022-12-14T11:15:00.364Z,92.50
2022-12-14T11:17:30.313Z,92.60
2022-12-14T11:20:09.378Z,92.60
2022-12-14T11:22:43.510Z,92.50
2022-12-14T11:25:28.851Z,92.50
2022-12-14T11:27:56.153Z,92.50
2022-12-14T11:30:22.885Z,92.50
2022-12-14T11:32:49.902Z,92.50
2022-12-14T11:35:17.789Z,92.60
2022-12-14T11:37:44.932Z,92.60
2022-12-14T11:40:19.800Z,92.60
2022-12-14T11:42:48.722Z,92.60
2022-12-14T11:45:33.175Z,92.60
2022-12-14T11:48:14.850Z,92.60
2022-12-14T11:50:42.321Z,92.60
2022-12-14T11:53:11.969Z,92.60
2022-12-14T11:55:41.170Z,92.60
2022-12-14T11:58:14.727Z,92.60
2022-12-14T12:00:47.161Z,92.60
2022-12-14T12:03:16.367Z,92.60
2022-12-14T12:05:46.255Z,92.60
2022-12-14T12:08:19.186Z,92.60
2022-12-14T12:10:50.024Z,92.60
2022-12-14T12:13:23.482Z,92.60
2022-12-14T12:15:52.382Z,92.60
2022-12-14T12:18:22.197Z,92.60
2022-12-14T12:20:54.882Z,92.90
2022-12-14T12:23:40.006Z,92.60
2022-12-14T12:26:17.892Z,92.60
2022-12-14T12:28:48.242Z,92.60
2022-12-14T12:31:18.797Z,92.60
2022-12-14T12:33:58.150Z,92.60
2022-12-14T12:36:25.070Z,92.60
2022-12-14T12:39:02.864Z,92.60
2022-12-14T12:42:05.615Z,92.60
2022-12-14T12:44:32.420Z,92.60
2022-12-14T12:49:50.366Z,92.60
2022-12-14T12:52:28.577Z,92.60
2022-12-14T12:54:58.297Z,92.70
2022-12-14T12:57:28.347Z,92.60
2022-12-14T12:59:55.792Z,92.60
2022-12-14T13:02:36.352Z,92.70
2022-12-14T13:05:37.292Z,92.60
2022-12-14T13:07:55.992Z,92.60
2022-12-14T13:10:30.771Z,92.60
2022-12-14T13:13:01.397Z,92.70
2022-12-14T13:15:28.308Z,92.80
2022-12-14T13:18:02.737Z,92.70
2022-12-14T13:20:31.941Z,92.70
2022-12-14T13:23:05.764Z,92.70
2022-12-14T13:25:45.081Z,92.70
2022-12-14T13:28:11.813Z,92.80
2022-12-14T13:30:57.452Z,92.70
2022-12-14T13:33:43.206Z,92.70
2022-12-14T13:36:18.848Z,92.80
2022-12-14T13:39:06.381Z,92.70
2022-12-14T13:41:52.673Z,92.70
2022-12-14T13:44:36.096Z,92.70
2022-12-14T13:47:13.411Z,92.70
2022-12-14T13:49:40.208Z,92.70
2022-12-14T13:52:07.017Z,92.80
2022-12-14T13:54:36.071Z,92.70
2022-12-14T13:57:02.845Z,92.80
2022-12-14T13:59:33.144Z,92.80
2022-12-14T14:02:00.618Z,92.70
2022-12-14T14:04:29.668Z,92.70
2022-12-14T14:07:16.481Z,92.70
2022-12-14T14:09:46.286Z,92.80
2022-12-14T14:12:31.090Z,92.80
2022-12-14T14:15:02.078Z,92.70
2022-12-14T14:17:31.459Z,92.70
2022-12-14T14:19:59.234Z,92.70
2022-12-14T14:22:27.634Z,92.70
2022-12-14T14:25:00.449Z,92.80
2022-12-14T14:27:37.734Z,92.80
2022-12-14T14:30:22.904Z,92.80
2022-12-14T14:32:53.912Z,92.80
2022-12-14T14:35:27.000Z,92.80
2022-12-14T14:37:57.080Z,92.80
2022-12-14T14:40:50.889Z,92.80
2022-12-14T14:43:23.621Z,92.80
2022-12-14T14:45:52.329Z,92.80
2022-12-14T14:48:36.752Z,92.80
2022-12-14T14:51:03.697Z,92.80
2022-12-14T14:53:32.071Z,92.80
2022-12-14T14:56:00.407Z,92.80
2022-12-14T14:58:28.885Z,92.80
2022-12-14T15:01:00.743Z,93.10
2022-12-14T15:03:53.862Z,92.80
2022-12-14T15:06:31.899Z,92.90
2022-12-14T15:08:58.650Z,92.90
2022-12-14T15:11:26.054Z,92.80
2022-12-14T15:14:14.037Z,92.80
2022-12-14T15:16:42.087Z,92.80
2022-12-14T15:19:28.256Z,92.80
2022-12-14T15:22:00.129Z,92.80
2022-12-14T15:24:27.001Z,92.90
2022-12-14T15:26:54.239Z,92.90
2022-12-14T15:29:24.987Z,92.90
2022-12-14T15:31:59.096Z,92.90
2022-12-14T15:34:26.552Z,92.90
2022-12-14T15:36:53.685Z,92.80
2022-12-14T15:39:27.487Z,92.90
2022-12-14T15:42:04.539Z,92.90
2022-12-14T15:44:31.374Z,92.90
2022-12-14T15:46:58.228Z,92.80
2022-12-14T15:49:25.116Z,92.80
2022-12-14T15:51:52.181Z,92.90
2022-12-14T15:54:20.907Z,92.90
2022-12-14T15:56:52.195Z,92.80
2022-12-14T15:59:21.676Z,92.80
2022-12-14T16:01:55.219Z,92.80
2022-12-14T16:04:27.801Z,92.80
2022-12-14T16:07:09.083Z,92.80
2022-12-14T16:09:51.581Z,92.90
2022-12-14T16:12:30.304Z,92.80
2022-12-14T16:14:58.875Z,92.90
2022-12-14T16:17:30.560Z,92.80
2022-12-14T16:20:00.637Z,92.90
2022-12-14T16:22:29.000Z,92.90
2022-12-14T16:25:08.009Z,92.90
2022-12-14T16:27:42.350Z,92.90
2022-12-14T16:30:15.159Z,92.80
2022-12-14T16:32:42.109Z,92.90
2022-12-14T16:35:15.685Z,92.90
2022-12-14T16:37:42.500Z,92.80
2022-12-14T16:40:23.518Z,92.90
2022-12-14T16:42:50.356Z,93.00
2022-12-14T16:45:43.612Z,92.90
2022-12-14T16:48:14.743Z,92.90
2022-12-14T16:50:56.920Z,92.90
2022-12-14T16:53:26.635Z,92.90
2022-12-14T16:55:59.638Z,92.90
2022-12-14T16:58:26.503Z,92.90
2022-12-14T17:01:04.195Z,92.90
2022-12-14T17:03:32.122Z,92.90
2022-12-14T17:06:00.876Z,92.90
2022-12-14T17:08:27.819Z,92.90
2022-12-14T17:10:55.085Z,92.90
2022-12-14T17:13:21.881Z,92.90
2022-12-14T17:15:54.811Z,92.90
2022-12-14T17:18:22.828Z,92.90
2022-12-14T17:20:49.616Z,92.90
2022-12-14T17:23:17.300Z,92.90
2022-12-14T17:25:47.805Z,93.00
2022-12-14T17:28:28.738Z,92.90
2022-12-14T17:30:57.557Z,92.90
2022-12-14T17:33:25.525Z,92.90
2022-12-14T17:35:52.431Z,92.90
2022-12-14T17:38:20.098Z,92.90
2022-12-14T17:40:47.787Z,92.90
2022-12-14T17:43:18.389Z,92.90
2022-12-14T17:45:45.304Z,92.90
2022-12-14T17:48:16.125Z,92.90
2022-12-14T17:50:44.594Z,92.90
2022-12-14T17:53:14.790Z,93.00
2022-12-14T17:55:41.716Z,93.00
2022-12-14T17:58:11.549Z,93.00
2022-12-14T18:00:57.259Z,93.00
2022-12-14T18:03:24.088Z,93.00
2022-12-14T18:05:52.253Z,92.90
2022-12-14T18:08:19.642Z,92.90
2022-12-14T18:10:47.388Z,93.00
2022-12-14T18:13:14.192Z,93.00
2022-12-14T18:15:43.079Z,93.00
2022-12-14T18:18:09.935Z,93.00
2022-12-14T18:20:38.984Z,93.00
2022-12-14T18:23:06.072Z,93.00
2022-12-14T18:25:42.065Z,93.00
2022-12-14T18:28:11.594Z,93.00
2022-12-14T18:30:45.852Z,93.00
2022-12-14T18:33:16.837Z,93.00
2022-12-14T18:35:44.383Z,93.00
2022-12-14T18:38:11.281Z,93.00
2022-12-14T18:40:38.938Z,93.00
2022-12-14T18:43:05.722Z,93.00
2022-12-14T18:45:33.941Z,93.00
2022-12-14T18:48:01.737Z,93.00
2022-12-14T18:50:28.994Z,93.00
2022-12-14T18:52:55.826Z,92.90
2022-12-14T18:55:24.130Z,92.90
2022-12-14T18:57:52.374Z,93.00
2022-12-14T19:00:20.372Z,93.00
2022-12-14T19:02:47.317Z,93.00
2022-12-14T19:05:19.161Z,93.00
2022-12-14T19:07:45.979Z,93.00
2022-12-14T19:10:17.407Z,93.00
2022-12-14T19:12:44.596Z,93.00
2022-12-14T19:15:15.494Z,93.10
2022-12-14T19:17:42.448Z,93.10
2022-12-14T19:20:09.893Z,93.10
2022-12-14T19:22:36.774Z,93.10
2022-12-14T19:25:03.773Z,93.10
2022-12-14T19:28:01.258Z,93.10
2022-12-14T19:30:22.945Z,93.10
2022-12-14T19:32:53.402Z,93.10
2022-12-14T19:35:20.834Z,93.10
2022-12-14T19:37:47.991Z,93.10
2022-12-14T19:40:15.440Z,93.10
2022-12-14T19:42:42.520Z,93.10
2022-12-14T19:45:09.956Z,93.10
2022-12-14T19:47:36.807Z,93.10
2022-12-14T19:50:04.793Z,93.10
2022-12-14T19:52:31.690Z,93.10
2022-12-14T19:54:58.440Z,93.10
2022-12-14T19:57:25.395Z,93.10
2022-12-14T19:59:52.331Z,93.10
2022-12-14T20:02:19.225Z,93.10
2022-12-14T20:04:46.113Z,93.10
2022-12-14T20:07:14.435Z,93.10
2022-12-14T20:09:41.275Z,93.10
2022-12-14T20:12:11.500Z,93.10
2022-12-14T20:14:42.774Z,93.10
2022-12-14T20:17:10.447Z,93.10
2022-12-14T20:19:38.023Z,93.10
2022-12-14T20:22:05.506Z,93.10
2022-12-14T20:24:33.047Z,93.20
2022-12-14T20:26:59.871Z,93.10
2022-12-14T20:29:27.691Z,93.20
2022-12-14T20:31:57.201Z,93.10
2022-12-14T20:34:24.133Z,93.10
2022-12-14T20:36:51.400Z,93.20
2022-12-14T20:39:18.163Z,93.20
2022-12-14T20:41:44.940Z,93.20
2022-12-14T20:44:12.711Z,93.20
2022-12-14T20:46:42.288Z,93.20
2022-12-14T20:49:13.570Z,93.20
2022-12-14T20:51:40.611Z,93.20
2022-12-14T20:54:08.471Z,93.20
2022-12-14T20:56:35.999Z,93.40
2022-12-14T20:59:03.427Z,93.10
2022-12-14T21:01:30.374Z,93.10
2022-12-14T21:03:59.713Z,93.20
2022-12-14T21:06:26.850Z,93.20
2022-12-14T21:09:04.854Z,93.20
2022-12-14T21:11:54.362Z,93.20
2022-12-14T21:14:21.851Z,93.20
2022-12-14T21:16:48.834Z,93.20
2022-12-14T21:19:16.822Z,93.20
2022-12-14T21:21:46.838Z,93.20
2022-12-14T21:24:37.485Z,93.20
2022-12-14T21:27:05.776Z,93.20
2022-12-14T21:29:32.556Z,93.20
2022-12-14T21:31:59.356Z,93.20
2022-12-14T21:34:26.551Z,93.20
2022-12-14T21:36:53.505Z,93.20
2022-12-14T21:39:20.309Z,93.20
2022-12-14T21:42:05.756Z,93.20
2022-12-14T21:44:34.892Z,93.20
2022-12-14T21:47:02.192Z,93.20
2022-12-14T21:49:29.079Z,93.20
2022-12-14T21:51:58.716Z,93.30
2022-12-14T21:54:25.884Z,93.30
2022-12-14T21:57:11.215Z,93.30
2022-12-14T21:59:39.402Z,93.20
2022-12-14T22:02:08.442Z,93.20
2022-12-14T22:04:39.782Z,93.30
2022-12-14T22:07:06.916Z,93.30
2022-12-14T22:09:33.687Z,93.20
2022-12-14T22:12:00.481Z,93.20
2022-12-14T22:14:27.219Z,93.30
2022-12-14T22:16:53.985Z,93.30
2022-12-14T22:19:22.309Z,93.30
2022-12-14T22:21:49.896Z,93.30
2022-12-14T22:24:19.526Z,93.20
2022-12-14T22:26:46.550Z,93.20
2022-12-14T22:29:14.998Z,93.20
2022-12-14T22:31:41.877Z,93.20
2022-12-14T22:34:10.341Z,93.20
2022-12-14T22:36:37.039Z,93.20
2022-12-14T22:39:05.807Z,93.20
2022-12-14T22:41:32.583Z,93.50
2022-12-14T22:43:59.386Z,93.30
2022-12-14T22:46:27.137Z,93.30
2022-12-14T22:48:54.575Z,93.30
2022-12-14T22:51:21.570Z,93.20
2022-12-14T22:53:49.558Z,93.20
2022-12-14T22:56:27.315Z,93.30
2022-12-14T22:59:03.471Z,93.30
2022-12-14T23:01:30.832Z,93.30
2022-12-14T23:03:57.745Z,93.30
2022-12-14T23:06:24.709Z,93.30
2022-12-14T23:09:09.901Z,93.30
2022-12-14T23:11:55.100Z,93.30
2022-12-14T23:14:40.235Z,93.30
2022-12-14T23:17:26.047Z,93.30
2022-12-14T23:20:11.676Z,93.30
2022-12-14T23:22:57.336Z,93.30
2022-12-14T23:25:42.796Z,93.30
2022-12-14T23:28:28.178Z,93.30
2022-12-14T23:31:14.900Z,93.30
2022-12-14T23:34:00.265Z,93.30
2022-12-14T23:36:45.933Z,93.30
2022-12-14T23:39:31.052Z,93.30
2022-12-14T23:42:16.394Z,93.30
2022-12-14T23:45:01.566Z,93.40
2022-12-14T23:47:46.954Z,93.40
2022-12-14T23:50:35.305Z,93.40
2022-12-14T23:53:27.433Z,93.40
2022-12-14T23:56:12.923Z,93.30
2022-12-14T23:58:58.133Z,93.40
